createdAt,value
2023-03-22T00:01:13.876Z,20.30
2023-03-22T00:03:41.122Z,20.00
2023-03-22T00:06:08.529Z,19.30
2023-03-22T00:08:35.793Z,19.10
2023-03-22T00:11:03.296Z,19.90
2023-03-22T00:13:31.010Z,18.40
2023-03-22T00:15:57.832Z,20.10
2023-03-22T00:18:24.511Z,19.30
2023-03-22T00:20:53.861Z,19.80
2023-03-22T00:23:21.062Z,20.70
2023-03-22T00:25:48.789Z,18.50
2023-03-22T00:28:16.801Z,19.00
2023-03-22T00:30:51.912Z,19.20
2023-03-22T00:33:18.746Z,20.90
2023-03-22T00:35:59.041Z,19.40
2023-03-22T00:38:42.084Z,19.90
2023-03-22T00:41:14.404Z,20.40
2023-03-22T00:43:41.841Z,20.50
2023-03-22T00:46:09.455Z,21.10
2023-03-22T00:48:36.407Z,19.80
2023-03-22T00:51:03.801Z,19.50
2023-03-22T00:53:36.724Z,20.90
2023-03-22T00:56:05.764Z,20.80
2023-03-22T00:58:40.044Z,20.60
2023-03-22T01:01:07.562Z,20.40
2023-03-22T01:03:35.103Z,20.50
2023-03-22T01:06:02.706Z,20.20
2023-03-22T01:08:33.680Z,19.90
2023-03-22T01:11:01.517Z,21.90
2023-03-22T01:13:29.270Z,21.00
2023-03-22T01:15:56.523Z,22.90
2023-03-22T01:18:24.000Z,21.50
2023-03-22T01:20:51.726Z,22.20
2023-03-22T01:23:18.610Z,22.00
2023-03-22T01:25:45.314Z,20.80
2023-03-22T01:28:12.106Z,20.80
2023-03-22T01:30:41.349Z,20.50
2023-03-22T01:33:08.564Z,19.20
2023-03-22T01:35:36.630Z,23.80
2023-03-22T01:38:04.071Z,23.50
2023-03-22T01:40:33.315Z,20.60
2023-03-22T01:43:00.807Z,21.90
2023-03-22T01:45:36.658Z,22.20
2023-03-22T01:48:25.809Z,22.40
2023-03-22T01:51:20.630Z,22.60
2023-03-22T01:54:09.526Z,22.80
2023-03-22T01:56:40.360Z,21.50
2023-03-22T01:59:12.734Z,22.50
2023-03-22T02:02:07.555Z,21.90
2023-03-22T02:04:39.278Z,22.50
2023-03-22T02:07:10.506Z,23.80
2023-03-22T02:09:42.563Z,22.40
2023-03-22T02:12:32.303Z,24.00
2023-03-22T02:15:37.653Z,22.60
2023-03-22T02:21:05.012Z,22.40
2023-03-22T02:24:09.845Z,23.20
2023-03-22T02:26:59.769Z,24.00
2023-03-22T02:29:59.250Z,24.30
2023-03-22T02:32:41.249Z,23.50
2023-03-22T02:35:14.245Z,22.30
2023-03-22T02:38:01.602Z,22.50
2023-03-22T02:40:37.257Z,23.60
2023-03-22T02:43:13.065Z,24.90
2023-03-22T02:46:05.177Z,23.70
2023-03-22T02:48:55.348Z,23.10
2023-03-22T02:51:33.872Z,23.30
2023-03-22T02:57:01.599Z,21.80
2023-03-22T02:59:30.341Z,23.20
2023-03-22T03:02:00.369Z,22.90
2023-03-22T03:04:37.917Z,25.30
2023-03-22T03:07:09.712Z,26.50
2023-03-22T03:09:40.095Z,23.90
2023-03-22T03:12:22.137Z,23.70
2023-03-22T03:14:51.151Z,23.30
2023-03-22T03:17:41.372Z,24.70
2023-03-22T03:20:30.395Z,24.60
2023-03-22T03:23:20.001Z,23.70
2023-03-22T03:25:58.054Z,19.80
2023-03-22T03:28:44.939Z,24.20
2023-03-22T03:31:28.278Z,22.70
2023-03-22T03:34:05.850Z,20.30
2023-03-22T03:36:37.888Z,22.10
2023-03-22T03:39:09.313Z,24.40
2023-03-22T03:41:36.871Z,23.20
2023-03-22T03:44:04.583Z,22.40
2023-03-22T03:46:31.385Z,23.70
2023-03-22T03:48:58.892Z,23.80
2023-03-22T03:51:28.095Z,23.50
2023-03-22T03:53:55.237Z,24.10
2023-03-22T03:56:22.243Z,25.50
2023-03-22T03:58:49.390Z,22.80
2023-03-22T04:01:19.626Z,24.10
2023-03-22T04:03:56.853Z,20.90
2023-03-22T04:06:46.594Z,25.30
2023-03-22T04:09:17.597Z,24.80
2023-03-22T04:11:47.548Z,24.10
2023-03-22T04:14:14.834Z,24.40
2023-03-22T04:16:41.650Z,25.10
2023-03-22T04:19:10.076Z,24.20
2023-03-22T04:21:37.370Z,24.40
2023-03-22T04:24:04.741Z,26.20
2023-03-22T04:26:35.587Z,25.00
2023-03-22T04:29:14.669Z,23.30
2023-03-22T04:31:44.580Z,23.50
2023-03-22T04:34:21.642Z,23.60
2023-03-22T04:36:51.810Z,23.80
2023-03-22T04:39:28.794Z,25.20
2023-03-22T04:42:16.071Z,23.90
2023-03-22T04:44:42.942Z,24.40
2023-03-22T04:47:09.662Z,27.30
2023-03-22T04:49:36.527Z,26.00
2023-03-22T04:52:03.672Z,27.30
2023-03-22T04:54:37.850Z,25.40
2023-03-22T04:57:05.031Z,26.20
2023-03-22T04:59:37.000Z,26.30
2023-03-22T05:02:04.113Z,25.30
2023-03-22T05:04:37.039Z,24.70
2023-03-22T05:07:10.776Z,25.60
2023-03-22T05:09:48.316Z,26.10
2023-03-22T05:12:15.565Z,25.50
2023-03-22T05:14:50.976Z,25.90
2023-03-22T05:17:22.638Z,24.30
2023-03-22T05:19:52.408Z,24.60
2023-03-22T05:22:22.483Z,23.70
2023-03-22T05:24:51.905Z,26.20
2023-03-22T05:27:31.457Z,24.70
2023-03-22T05:30:31.198Z,24.80
2023-03-22T05:33:05.058Z,25.80
2023-03-22T05:35:44.021Z,25.00
2023-03-22T05:38:11.386Z,24.40
2023-03-22T05:40:41.495Z,26.30
2023-03-22T05:43:08.729Z,27.20
2023-03-22T05:45:37.453Z,26.00
2023-03-22T05:48:14.277Z,27.10
2023-03-22T05:50:41.329Z,27.40
2023-03-22T05:53:08.526Z,27.40
2023-03-22T05:55:57.763Z,27.70
2023-03-22T05:58:25.159Z,26.20
2023-03-22T06:00:52.311Z,26.60
2023-03-22T06:03:24.781Z,26.90
2023-03-22T06:05:58.770Z,27.50
2023-03-22T06:08:39.606Z,26.30
2023-03-22T06:11:07.792Z,28.70
2023-03-22T06:13:35.460Z,27.60
2023-03-22T06:16:05.040Z,27.90
2023-03-22T06:18:33.055Z,29.20
2023-03-22T06:21:06.297Z,26.10
2023-03-22T06:23:32.901Z,28.70
2023-03-22T06:25:59.616Z,29.40
2023-03-22T06:28:30.023Z,28.20
2023-03-22T06:30:57.431Z,28.50
2023-03-22T06:33:37.598Z,26.40
2023-03-22T06:36:14.365Z,26.10
2023-03-22T06:39:02.746Z,27.50
2023-03-22T06:41:29.511Z,27.20
2023-03-22T06:43:56.263Z,26.00
2023-03-22T06:46:37.726Z,27.30
2023-03-22T06:49:11.010Z,28.00
2023-03-22T06:51:38.247Z,27.60
2023-03-22T06:54:05.036Z,27.70
2023-03-22T06:56:31.780Z,29.10
2023-03-22T06:59:01.179Z,27.40
2023-03-22T07:01:27.919Z,25.90
2023-03-22T07:03:54.951Z,27.10
2023-03-22T07:06:23.112Z,27.40
2023-03-22T07:08:51.994Z,27.30
2023-03-22T07:11:21.966Z,26.90
2023-03-22T07:13:54.661Z,26.40
2023-03-22T07:16:22.835Z,28.70
2023-03-22T07:18:57.216Z,27.80
2023-03-22T07:21:24.197Z,27.60
2023-03-22T07:23:55.578Z,26.80
2023-03-22T07:26:26.445Z,26.40
2023-03-22T07:28:53.877Z,27.90
2023-03-22T07:31:22.931Z,21.30
2023-03-22T07:33:55.458Z,27.90
2023-03-22T07:36:25.823Z,27.60
2023-03-22T07:38:53.493Z,30.40
2023-03-22T07:41:27.019Z,27.80
2023-03-22T07:44:16.961Z,26.80
2023-03-22T07:46:52.413Z,26.50
2023-03-22T07:49:27.348Z,28.00
2023-03-22T07:52:29.513Z,24.10
2023-03-22T07:54:57.824Z,28.50
2023-03-22T07:57:24.519Z,30.10
2023-03-22T07:59:57.922Z,26.90
2023-03-22T08:02:28.167Z,28.70
2023-03-22T08:04:56.651Z,28.70
2023-03-22T08:07:38.762Z,28.40
2023-03-22T08:10:05.754Z,27.30
2023-03-22T08:12:33.348Z,28.70
2023-03-22T08:15:09.016Z,28.10
2023-03-22T08:17:36.138Z,26.00
2023-03-22T08:20:09.142Z,26.10
2023-03-22T08:22:45.641Z,28.40
2023-03-22T08:25:27.458Z,24.70
2023-03-22T08:27:57.276Z,24.80
2023-03-22T08:30:26.431Z,24.40
2023-03-22T08:32:53.387Z,25.60
2023-03-22T08:35:20.928Z,25.50
2023-03-22T08:37:48.132Z,21.50
2023-03-22T08:40:15.458Z,24.50
2023-03-22T08:42:50.780Z,24.70
2023-03-22T08:45:17.954Z,26.70
2023-03-22T08:47:50.578Z,25.40
2023-03-22T08:50:18.187Z,24.50
2023-03-22T08:53:05.764Z,23.90
2023-03-22T08:55:38.195Z,22.60
2023-03-22T08:58:16.504Z,25.90
2023-03-22T09:01:04.437Z,24.40
2023-03-22T09:03:38.588Z,23.60
2023-03-22T09:06:06.753Z,26.20
2023-03-22T09:08:36.624Z,22.80
2023-03-22T09:11:11.393Z,25.70
2023-03-22T09:13:38.917Z,24.90
2023-03-22T09:16:08.925Z,22.30
2023-03-22T09:18:37.474Z,22.80
2023-03-22T09:21:10.727Z,23.20
2023-03-22T09:23:47.836Z,23.10
2023-03-22T09:26:15.547Z,23.40
2023-03-22T09:28:43.451Z,23.30
2023-03-22T09:31:11.014Z,25.20
2023-03-22T09:33:41.766Z,23.10
2023-03-22T09:36:12.030Z,22.40
2023-03-22T09:38:41.426Z,24.20
2023-03-22T09:41:16.309Z,24.40
2023-03-22T09:43:49.827Z,24.00
2023-03-22T09:46:24.322Z,24.80
2023-03-22T09:48:51.992Z,23.10
2023-03-22T09:51:30.968Z,21.80
2023-03-22T09:53:57.746Z,22.10
2023-03-22T09:56:27.665Z,25.80
2023-03-22T09:59:17.555Z,24.30
2023-03-22T10:01:55.381Z,20.50
2023-03-22T10:04:58.631Z,24.30
2023-03-22T10:07:36.467Z,22.70
2023-03-22T10:10:20.337Z,23.00
2023-03-22T10:13:07.661Z,25.50
2023-03-22T10:15:42.622Z,23.30
2023-03-22T10:18:17.179Z,22.80
2023-03-22T10:21:08.706Z,20.70
2023-03-22T10:23:44.211Z,25.40
2023-03-22T10:26:21.957Z,24.40
2023-03-22T10:29:01.550Z,23.10
2023-03-22T10:31:31.387Z,23.60
2023-03-22T10:34:29.359Z,21.40
2023-03-22T10:36:56.373Z,23.30
2023-03-22T10:39:28.983Z,23.30
2023-03-22T10:41:59.941Z,20.90
2023-03-22T10:44:29.590Z,21.70
2023-03-22T10:47:02.030Z,23.30
2023-03-22T10:50:03.692Z,23.30
2023-03-22T10:52:30.626Z,22.00
2023-03-22T10:55:01.248Z,20.40
2023-03-22T10:57:29.862Z,22.00
2023-03-22T10:59:57.605Z,22.40
2023-03-22T11:02:30.611Z,22.10
2023-03-22T11:05:01.004Z,19.30
2023-03-22T11:07:27.672Z,22.20
2023-03-22T11:10:22.591Z,21.20
2023-03-22T11:12:55.270Z,22.40
2023-03-22T11:15:32.968Z,23.50
2023-03-22T11:18:07.068Z,21.60
2023-03-22T11:20:35.398Z,21.10
2023-03-22T11:23:05.575Z,22.80
2023-03-22T11:25:37.876Z,22.70
2023-03-22T11:28:04.553Z,22.80
2023-03-22T11:30:32.970Z,23.40
2023-03-22T11:33:22.118Z,22.30
2023-03-22T11:35:58.334Z,23.90
2023-03-22T11:38:37.947Z,22.60
2023-03-22T11:41:23.819Z,22.10
2023-03-22T11:43:56.907Z,18.90
2023-03-22T11:46:24.661Z,23.10
2023-03-22T11:48:59.577Z,22.60
2023-03-22T11:51:39.483Z,22.40
2023-03-22T11:54:11.091Z,19.90
2023-03-22T11:56:43.573Z,20.10
2023-03-22T11:59:16.836Z,22.30
2023-03-22T12:02:13.575Z,21.60
2023-03-22T12:04:42.374Z,20.00
2023-03-22T12:07:19.513Z,21.10
2023-03-22T12:09:58.349Z,21.60
2023-03-22T12:12:51.388Z,18.80
2023-03-22T12:15:22.675Z,19.10
2023-03-22T12:17:55.176Z,18.80
2023-03-22T12:20:39.285Z,19.00
2023-03-22T12:23:22.302Z,19.00
2023-03-22T12:25:57.671Z,18.60
2023-03-22T12:28:56.852Z,17.80
2023-03-22T12:31:28.996Z,18.40
2023-03-22T12:36:38.200Z,20.20
2023-03-22T12:39:08.219Z,20.00
2023-03-22T12:41:38.784Z,22.70
2023-03-22T12:44:25.844Z,22.00
2023-03-22T12:47:07.508Z,20.10
2023-03-22T12:49:41.379Z,17.80
2023-03-22T12:52:44.597Z,18.00
2023-03-22T12:55:27.210Z,18.60
2023-03-22T12:57:54.864Z,17.60
2023-03-22T13:00:35.328Z,17.70
2023-03-22T13:03:18.447Z,14.90
2023-03-22T13:05:47.927Z,14.20
2023-03-22T13:08:22.980Z,18.60
2023-03-22T13:10:59.708Z,15.80
2023-03-22T13:13:28.019Z,16.30
2023-03-22T13:16:11.049Z,16.70
2023-03-22T13:18:38.083Z,15.70
2023-03-22T13:21:10.561Z,17.40
2023-03-22T13:23:52.427Z,16.20
2023-03-22T13:26:21.170Z,15.70
2023-03-22T13:28:59.410Z,15.20
2023-03-22T13:31:36.783Z,16.50
2023-03-22T13:34:04.976Z,15.30
2023-03-22T13:36:32.173Z,18.00
2023-03-22T13:39:04.970Z,17.10
2023-03-22T13:41:34.828Z,15.50
2023-03-22T13:44:19.839Z,16.60
2023-03-22T13:46:51.858Z,15.40
2023-03-22T13:49:49.249Z,18.00
2023-03-22T13:52:29.205Z,15.60
2023-03-22T13:54:57.758Z,14.80
2023-03-22T13:57:58.900Z,15.90
2023-03-22T14:00:35.168Z,13.80
2023-03-22T14:03:09.698Z,14.10
2023-03-22T14:05:38.784Z,15.10
2023-03-22T14:08:07.525Z,16.30
2023-03-22T14:10:44.956Z,15.30
2023-03-22T14:13:28.933Z,14.80
2023-03-22T14:16:12.098Z,15.90
2023-03-22T14:18:43.586Z,10.40
2023-03-22T14:21:18.061Z,15.00
